createdAt,value
2018-01-27T00:00:01.006Z,22.75
2018-01-27T00:02:29.086Z,22.10
2018-01-27T00:04:57.425Z,25.20
2018-01-27T00:07:25.809Z,23.90
2018-01-27T00:09:54.169Z,23.73
2018-01-27T00:12:22.518Z,24.52
2018-01-27T00:14:50.841Z,24.00
2018-01-27T00:17:19.201Z,22.62
2018-01-27T00:19:47.521Z,24.23
2018-01-27T00:22:15.965Z,23.73
2018-01-27T00:24:44.309Z,22.60
2018-01-27T00:27:12.637Z,24.73
2018-01-27T00:29:40.995Z,25.02
2018-01-27T00:32:09.317Z,23.03
2018-01-27T00:34:37.748Z,23.20
2018-01-27T00:37:06.078Z,23.62
2018-01-27T00:39:34.501Z,23.83
2018-01-27T00:42:02.830Z,24.80
2018-01-27T00:44:31.269Z,22.50
2018-01-27T00:46:59.598Z,25.23
2018-01-27T00:49:28.021Z,24.70
2018-01-27T00:51:56.345Z,24.33
2018-01-27T00:54:24.764Z,28.00
2018-01-27T00:56:53.094Z,25.67
2018-01-27T00:59:21.450Z,24.95
2018-01-27T01:01:49.773Z,26.20
2018-01-27T01:04:18.117Z,21.77
2018-01-27T01:06:46.443Z,24.05
2018-01-27T01:09:14.785Z,22.75
2018-01-27T01:11:43.114Z,23.98
2018-01-27T01:14:11.453Z,22.95
2018-01-27T01:16:39.778Z,24.37
2018-01-27T01:19:08.125Z,23.65
2018-01-27T01:21:36.445Z,23.12
2018-01-27T01:24:04.789Z,23.77
2018-01-27T01:26:33.109Z,24.02
2018-01-27T01:29:01.456Z,23.17
2018-01-27T01:31:29.777Z,26.05
2018-01-27T01:33:58.120Z,25.23
2018-01-27T01:36:26.445Z,25.35
2018-01-27T01:38:54.796Z,22.67
2018-01-27T01:41:23.121Z,25.55
2018-01-27T01:43:57.126Z,24.95
2018-01-27T01:46:25.449Z,22.02
2018-01-27T01:48:53.793Z,20.85
2018-01-27T01:51:22.117Z,22.05
2018-01-27T01:53:50.465Z,25.15
2018-01-27T01:56:18.789Z,23.62
2018-01-27T01:58:47.135Z,23.35
2018-01-27T02:01:15.457Z,22.52
2018-01-27T02:03:43.805Z,22.45
2018-01-27T02:06:12.133Z,25.52
2018-01-27T02:08:40.473Z,24.37
2018-01-27T02:11:08.794Z,21.85
2018-01-27T02:13:37.138Z,24.12
2018-01-27T02:16:05.461Z,24.70
2018-01-27T02:18:33.809Z,25.30
2018-01-27T02:21:02.133Z,23.50
2018-01-27T02:23:30.476Z,26.02
2018-01-27T02:25:58.801Z,22.52
2018-01-27T02:28:27.126Z,21.37
2018-01-27T02:30:55.471Z,23.55
2018-01-27T02:33:23.794Z,25.40
2018-01-27T02:35:52.137Z,25.00
2018-01-27T02:38:20.460Z,22.60
2018-01-27T02:40:48.805Z,24.00
2018-01-27T02:43:17.984Z,21.95
2018-01-27T02:45:46.313Z,23.50
2018-01-27T02:48:14.641Z,23.73
2018-01-27T02:50:42.986Z,21.65
2018-01-27T02:53:11.310Z,23.10
2018-01-27T02:55:39.654Z,27.13
2018-01-27T02:58:07.982Z,23.00
2018-01-27T03:00:36.321Z,22.58
2018-01-27T03:03:04.645Z,22.05
2018-01-27T03:05:32.992Z,23.10
2018-01-27T03:08:01.325Z,23.05
2018-01-27T03:10:29.669Z,20.95
2018-01-27T03:12:57.998Z,21.15
2018-01-27T03:15:26.340Z,20.42
2018-01-27T03:17:54.665Z,21.23
2018-01-27T03:20:23.009Z,19.52
2018-01-27T03:22:51.333Z,19.92
2018-01-27T03:25:19.678Z,24.37
2018-01-27T03:27:48.002Z,20.33
2018-01-27T03:30:16.350Z,20.85
2018-01-27T03:32:44.677Z,19.92
2018-01-27T03:35:13.021Z,21.00
2018-01-27T03:37:41.346Z,22.00
2018-01-27T03:40:09.689Z,19.85
2018-01-27T03:42:38.014Z,16.50
2018-01-27T03:45:06.358Z,18.85
2018-01-27T03:47:34.681Z,18.77
2018-01-27T03:50:03.026Z,16.77
2018-01-27T03:52:31.349Z,17.73
2018-01-27T03:54:59.693Z,18.40
2018-01-27T03:57:28.022Z,17.90
2018-01-27T03:59:56.365Z,17.85
2018-01-27T04:02:24.689Z,18.75
2018-01-27T04:04:53.034Z,17.80
2018-01-27T04:07:21.357Z,15.45
2018-01-27T04:09:49.701Z,15.23
2018-01-27T04:12:18.025Z,15.93
2018-01-27T04:14:46.368Z,14.98
2018-01-27T04:17:14.701Z,16.70
2018-01-27T04:19:43.042Z,16.02
2018-01-27T04:22:11.365Z,16.20
2018-01-27T04:24:39.712Z,17.65
2018-01-27T04:27:08.029Z,16.25
2018-01-27T04:29:36.354Z,15.40
2018-01-27T04:32:04.705Z,17.67
2018-01-27T04:34:33.025Z,13.82
2018-01-27T04:37:01.373Z,15.10
2018-01-27T04:39:29.693Z,16.20
2018-01-27T04:41:58.037Z,16.90
2018-01-27T04:44:26.373Z,15.38
2018-01-27T04:46:54.725Z,15.50
2018-01-27T04:49:23.046Z,17.17
2018-01-27T04:51:51.395Z,16.48
2018-01-27T04:54:19.717Z,16.12
2018-01-27T04:56:48.067Z,16.05
2018-01-27T04:59:16.384Z,16.37
2018-01-27T05:01:44.729Z,16.37
2018-01-27T05:04:13.061Z,17.48
2018-01-27T05:06:41.406Z,17.17
2018-01-27T05:09:09.729Z,15.85
2018-01-27T05:11:38.078Z,16.08
2018-01-27T05:14:06.398Z,17.58
2018-01-27T05:16:34.745Z,16.92
2018-01-27T05:19:03.065Z,15.27
2018-01-27T05:21:31.408Z,14.75
2018-01-27T05:23:59.733Z,15.73
2018-01-27T05:26:28.077Z,15.63
2018-01-27T05:28:56.401Z,18.00
2018-01-27T05:31:24.749Z,17.40
2018-01-27T05:33:53.073Z,17.40
2018-01-27T05:36:21.421Z,16.05
2018-01-27T05:38:49.746Z,16.87
2018-01-27T05:41:18.096Z,15.65
2018-01-27T05:43:46.421Z,17.30
2018-01-27T05:46:14.765Z,15.80
2018-01-27T05:48:43.093Z,15.68
2018-01-27T05:51:11.433Z,15.18
2018-01-27T05:53:39.770Z,15.50
2018-01-27T05:56:08.105Z,16.37
2018-01-27T05:58:36.430Z,15.07
2018-01-27T06:01:04.773Z,14.27
2018-01-27T06:03:33.103Z,15.65
2018-01-27T06:06:01.449Z,16.73
2018-01-27T06:08:29.773Z,14.70
2018-01-27T06:10:58.116Z,14.77
2018-01-27T06:13:26.437Z,15.77
2018-01-27T06:15:54.785Z,14.32
2018-01-27T06:18:23.109Z,14.55
2018-01-27T06:20:51.458Z,14.52
2018-01-27T06:23:19.782Z,16.67
2018-01-27T06:25:48.129Z,17.58
2018-01-27T06:28:16.449Z,16.73
2018-01-27T06:30:44.769Z,17.15
2018-01-27T06:33:13.114Z,18.67
2018-01-27T06:35:41.437Z,17.50
2018-01-27T06:38:09.782Z,18.42
2018-01-27T06:40:38.106Z,20.77
2018-01-27T06:43:06.457Z,23.80
2018-01-27T06:45:34.921Z,19.33
2018-01-27T06:48:03.250Z,22.17
2018-01-27T06:50:31.572Z,20.45
2018-01-27T06:52:59.918Z,19.08
2018-01-27T06:55:28.242Z,20.48
2018-01-27T06:57:56.589Z,20.15
2018-01-27T07:00:24.909Z,21.17
2018-01-27T07:02:53.254Z,20.58
2018-01-27T07:05:21.578Z,21.85
2018-01-27T07:07:49.926Z,22.65
2018-01-27T07:10:18.250Z,21.23
2018-01-27T07:12:46.597Z,20.70
2018-01-27T07:15:14.917Z,21.30
2018-01-27T07:17:43.261Z,20.88
2018-01-27T07:20:11.581Z,20.42
2018-01-27T07:22:39.922Z,23.52
2018-01-27T07:25:08.246Z,22.30
2018-01-27T07:27:36.595Z,22.10
2018-01-27T07:30:04.923Z,21.92
2018-01-27T07:32:33.261Z,20.70
2018-01-27T07:35:01.592Z,23.50
2018-01-27T07:37:29.937Z,23.62
2018-01-27T07:39:58.259Z,23.25
2018-01-27T07:42:26.601Z,24.17
2018-01-27T07:44:55.089Z,23.60
2018-01-27T07:47:23.433Z,22.98
2018-01-27T07:49:51.757Z,23.10
2018-01-27T07:52:20.100Z,22.55
2018-01-27T07:54:48.423Z,22.83
2018-01-27T07:57:16.766Z,24.48
2018-01-27T07:59:45.090Z,25.42
2018-01-27T08:02:13.434Z,26.45
2018-01-27T08:04:41.761Z,25.73
2018-01-27T08:07:10.104Z,25.52
2018-01-27T08:09:38.421Z,26.75
2018-01-27T08:12:06.766Z,26.85
2018-01-27T08:14:35.097Z,27.23
2018-01-27T08:17:03.437Z,28.25
2018-01-27T08:19:31.765Z,26.20
2018-01-27T08:22:00.113Z,29.12
2018-01-27T08:24:28.437Z,28.87
2018-01-27T08:26:56.793Z,28.73
2018-01-27T08:29:25.575Z,28.70
2018-01-27T08:32:00.677Z,28.17
2018-01-27T08:34:35.162Z,29.67
2018-01-27T08:37:03.549Z,28.00
2018-01-27T08:39:31.860Z,28.60
2018-01-27T08:42:00.195Z,33.33
2018-01-27T08:44:28.545Z,31.48
2018-01-27T08:46:56.869Z,30.07
2018-01-27T08:49:25.227Z,35.87
2018-01-27T08:51:53.557Z,31.93
2018-01-27T08:54:21.966Z,34.27
2018-01-27T08:56:50.305Z,35.07
2018-01-27T08:59:18.653Z,31.60
2018-01-27T09:01:47.015Z,35.28
2018-01-27T09:04:15.349Z,33.83
2018-01-27T09:06:43.682Z,33.60
2018-01-27T09:09:12.060Z,33.83
2018-01-27T09:11:40.409Z,35.75
2018-01-27T09:14:08.770Z,32.53
2018-01-27T09:16:37.105Z,33.50
2018-01-27T09:19:05.462Z,35.20
2018-01-27T09:21:33.794Z,33.73
2018-01-27T09:24:02.146Z,32.20
2018-01-27T09:26:30.479Z,33.10
2018-01-27T09:28:58.986Z,32.60
2018-01-27T09:31:28.145Z,32.10
2018-01-27T09:33:56.610Z,33.23
2018-01-27T09:36:24.937Z,31.83
2018-01-27T09:38:53.301Z,32.97
2018-01-27T09:41:21.637Z,32.43
2018-01-27T09:43:49.989Z,32.93
2018-01-27T09:46:18.317Z,29.00
2018-01-27T09:48:46.669Z,30.70
2018-01-27T09:51:15.917Z,32.70
2018-01-27T09:53:44.370Z,31.60
2018-01-27T09:56:12.685Z,32.10
2018-01-27T09:58:41.035Z,32.27
2018-01-27T10:01:09.366Z,27.73
2018-01-27T10:03:37.718Z,30.70
2018-01-27T10:06:06.053Z,27.70
2018-01-27T10:08:34.402Z,28.97
2018-01-27T10:11:03.809Z,27.42
2018-01-27T10:13:32.229Z,25.95
2018-01-27T10:16:01.514Z,29.97
2018-01-27T10:18:29.868Z,26.37
2018-01-27T10:20:58.206Z,27.83
2018-01-27T10:23:26.545Z,25.57
2018-01-27T10:25:54.890Z,27.15
2018-01-27T10:28:23.330Z,27.90
2018-01-27T10:30:52.175Z,25.62
2018-01-27T10:33:20.522Z,24.00
2018-01-27T10:35:48.890Z,25.40
2018-01-27T10:38:17.226Z,23.87
2018-01-27T10:40:45.553Z,23.03
2018-01-27T10:43:13.902Z,22.00
2018-01-27T10:45:43.206Z,22.77
2018-01-27T10:48:11.563Z,22.60
2018-01-27T10:50:39.935Z,23.87
2018-01-27T10:53:08.265Z,21.70
2018-01-27T10:55:36.658Z,25.15
2018-01-27T10:58:04.990Z,23.10
2018-01-27T11:00:33.348Z,24.33
2018-01-27T11:03:01.678Z,23.57
2018-01-27T11:05:30.042Z,23.03
2018-01-27T11:07:58.371Z,24.43
2018-01-27T11:10:26.720Z,21.90
2018-01-27T11:12:55.079Z,20.83
2018-01-27T11:15:23.426Z,18.87
2018-01-27T11:17:52.164Z,20.27
2018-01-27T11:20:20.489Z,19.13
2018-01-27T11:22:48.814Z,18.07
2018-01-27T11:25:17.165Z,14.60
2018-01-27T11:27:45.515Z,15.00
2018-01-27T11:30:14.518Z,16.52
2018-01-27T11:32:42.841Z,17.00
2018-01-27T11:35:11.189Z,16.60
2018-01-27T11:37:39.521Z,18.15
2018-01-27T11:40:07.877Z,18.43
2018-01-27T11:42:36.235Z,16.77
2018-01-27T11:45:04.621Z,17.30
2018-01-27T11:47:32.958Z,13.93
2018-01-27T11:50:01.321Z,15.07
2018-01-27T11:52:29.650Z,13.68
2018-01-27T11:54:58.049Z,13.57
2018-01-27T11:57:26.589Z,11.35
2018-01-27T11:59:54.950Z,12.27
2018-01-27T12:02:23.282Z,12.53
2018-01-27T12:04:51.650Z,8.97
2018-01-27T12:07:19.982Z,10.53
2018-01-27T12:09:48.339Z,11.68
2018-01-27T12:12:16.674Z,10.07
2018-01-27T12:14:45.034Z,11.00
2018-01-27T12:17:14.121Z,9.15
2018-01-27T12:19:42.478Z,10.97
2018-01-27T12:22:10.810Z,11.97
2018-01-27T12:24:39.165Z,11.40
2018-01-27T12:27:07.497Z,11.40
2018-01-27T12:29:35.917Z,12.57
2018-01-27T12:32:04.401Z,10.93
2018-01-27T12:34:34.718Z,11.30
2018-01-27T12:37:03.092Z,10.37
2018-01-27T12:39:31.446Z,13.68
2018-01-27T12:41:59.855Z,14.60
2018-01-27T12:44:28.427Z,14.97
2018-01-27T12:46:56.777Z,15.17
2018-01-27T12:49:25.122Z,15.53
2018-01-27T12:51:53.456Z,15.73
2018-01-27T12:54:21.781Z,16.83
2018-01-27T12:56:50.970Z,14.90
2018-01-27T12:59:19.278Z,15.25
2018-01-27T13:01:47.626Z,16.20
2018-01-27T13:04:15.949Z,17.37
2018-01-27T13:06:44.301Z,16.70
2018-01-27T13:09:12.634Z,16.87
2018-01-27T13:11:41.297Z,17.80
2018-01-27T13:14:09.622Z,16.00
2018-01-27T13:16:37.973Z,18.67
2018-01-27T13:19:06.306Z,15.57
2018-01-27T13:21:34.649Z,14.02
2018-01-27T13:24:02.974Z,15.83
2018-01-27T13:26:31.327Z,16.50
2018-01-27T13:28:59.657Z,15.47
2018-01-27T13:31:28.017Z,17.17
2018-01-27T13:33:56.342Z,16.30
2018-01-27T13:36:24.873Z,17.62
2018-01-27T13:38:53.203Z,15.83
2018-01-27T13:41:21.553Z,15.07
2018-01-27T13:43:49.881Z,16.40
2018-01-27T13:46:18.226Z,15.27
2018-01-27T13:48:46.553Z,14.70
2018-01-27T13:51:14.901Z,16.35
2018-01-27T13:53:43.225Z,16.03
2018-01-27T13:56:12.705Z,16.17
2018-01-27T13:58:41.013Z,16.50
2018-01-27T14:01:09.366Z,15.33
2018-01-27T14:03:37.697Z,16.33
2018-01-27T14:06:06.041Z,14.93
2018-01-27T14:08:34.370Z,18.02
2018-01-27T14:11:02.721Z,17.77
2018-01-27T14:13:31.045Z,19.43
2018-01-27T14:16:00.309Z,19.60
2018-01-27T14:18:28.638Z,18.80
2018-01-27T14:20:56.997Z,20.80
2018-01-27T14:23:25.340Z,19.50
2018-01-27T14:25:53.690Z,19.60
2018-01-27T14:28:22.014Z,18.27
2018-01-27T14:30:50.366Z,19.13
2018-01-27T14:33:18.693Z,18.63
2018-01-27T14:35:47.050Z,18.30
2018-01-27T14:38:15.373Z,18.93
2018-01-27T14:40:43.720Z,17.90
2018-01-27T14:43:12.048Z,17.42
2018-01-27T14:45:41.301Z,17.17
2018-01-27T14:48:09.626Z,18.77
2018-01-27T14:50:37.978Z,17.73
2018-01-27T14:53:06.310Z,16.67
2018-01-27T14:55:35.097Z,17.85
2018-01-27T14:58:03.426Z,18.47
2018-01-27T15:00:31.748Z,18.27
2018-01-27T15:03:00.097Z,18.65
2018-01-27T15:05:28.437Z,19.97
2018-01-27T15:07:56.787Z,19.63
2018-01-27T15:10:25.105Z,19.85
2018-01-27T15:12:53.459Z,19.37
2018-01-27T15:15:22.655Z,19.60
2018-01-27T15:17:51.005Z,19.13
2018-01-27T15:20:19.334Z,19.13
2018-01-27T15:22:47.694Z,20.12
2018-01-27T15:25:16.017Z,21.57
2018-01-27T15:27:44.366Z,21.73
2018-01-27T15:30:12.696Z,19.50
2018-01-27T15:32:41.046Z,22.80
2018-01-27T15:35:10.236Z,22.33
2018-01-27T15:37:38.597Z,19.47
2018-01-27T15:40:06.921Z,21.57
2018-01-27T15:42:35.274Z,21.35
2018-01-27T15:45:03.613Z,21.15
2018-01-27T15:47:31.957Z,22.13
2018-01-27T15:50:00.304Z,19.17
2018-01-27T15:52:28.680Z,21.10
2018-01-27T15:54:57.861Z,18.77
2018-01-27T15:57:26.317Z,19.67
2018-01-27T15:59:54.638Z,20.87
2018-01-27T16:02:22.989Z,20.47
2018-01-27T16:04:51.313Z,19.60
2018-01-27T16:07:19.695Z,19.92
2018-01-27T16:09:48.036Z,20.40
2018-01-27T16:12:16.378Z,19.30
2018-01-27T16:14:44.730Z,23.07
2018-01-27T16:17:13.119Z,21.87
2018-01-27T16:19:41.409Z,20.07
2018-01-27T16:22:09.758Z,20.47
2018-01-27T16:24:38.086Z,20.65
2018-01-27T16:27:06.439Z,22.40
2018-01-27T16:29:34.765Z,20.60
2018-01-27T16:32:03.131Z,20.60
2018-01-27T16:34:32.323Z,22.00
2018-01-27T16:37:00.653Z,19.30
2018-01-27T16:39:28.985Z,23.40
2018-01-27T16:41:57.334Z,19.07
2018-01-27T16:44:25.661Z,23.97
2018-01-27T16:46:54.018Z,20.63
2018-01-27T16:49:22.342Z,22.10
2018-01-27T16:51:50.705Z,19.80
2018-01-27T16:54:19.031Z,19.20
2018-01-27T16:56:47.377Z,21.70
2018-01-27T16:59:15.705Z,19.37
2018-01-27T17:01:44.070Z,20.15
2018-01-27T17:04:12.393Z,19.65
2018-01-27T17:06:40.725Z,19.80
2018-01-27T17:09:09.074Z,19.60
2018-01-27T17:11:37.410Z,19.07
2018-01-27T17:14:05.762Z,19.20
2018-01-27T17:16:34.094Z,18.73
2018-01-27T17:19:02.453Z,16.10
2018-01-27T17:21:30.779Z,16.95
2018-01-27T17:23:59.125Z,17.67
2018-01-27T17:26:27.453Z,16.53
2018-01-27T17:28:55.806Z,16.03
2018-01-27T17:31:24.137Z,15.73
2018-01-27T17:33:52.485Z,14.33
2018-01-27T17:36:20.814Z,14.70
2018-01-27T17:38:49.163Z,12.27
2018-01-27T17:41:17.490Z,14.03
2018-01-27T17:43:45.841Z,12.07
2018-01-27T17:46:14.174Z,12.87
2018-01-27T17:48:42.533Z,12.23
2018-01-27T17:51:10.862Z,12.87
2018-01-27T17:53:39.206Z,12.83
2018-01-27T17:56:07.538Z,13.32
2018-01-27T17:58:35.893Z,13.57
2018-01-27T18:01:04.734Z,13.30
2018-01-27T18:03:33.084Z,11.90
2018-01-27T18:06:01.415Z,13.33
2018-01-27T18:08:29.765Z,12.02
2018-01-27T18:10:58.095Z,12.47
2018-01-27T18:13:26.442Z,11.30
2018-01-27T18:15:54.765Z,11.00
2018-01-27T18:18:23.116Z,10.60
2018-01-27T18:20:51.442Z,12.17
2018-01-27T18:23:19.793Z,10.10
2018-01-27T18:25:49.097Z,9.77
2018-01-27T18:28:17.445Z,9.57
2018-01-27T18:30:45.769Z,10.73
2018-01-27T18:33:14.109Z,9.37
2018-01-27T18:35:42.438Z,10.77
2018-01-27T18:38:10.781Z,11.07
2018-01-27T18:40:39.113Z,11.53
2018-01-27T18:43:07.461Z,10.50
2018-01-27T18:45:35.789Z,11.03
2018-01-27T18:48:04.142Z,11.15
2018-01-27T18:50:32.466Z,11.17
2018-01-27T18:53:00.813Z,10.30
2018-01-27T18:55:29.141Z,9.32
2018-01-27T18:57:57.491Z,10.10
2018-01-27T19:00:25.812Z,9.40
2018-01-27T19:02:54.153Z,8.77
2018-01-27T19:05:22.477Z,10.17
2018-01-27T19:07:50.852Z,10.37
2018-01-27T19:10:19.201Z,9.80
2018-01-27T19:12:47.520Z,9.57
2018-01-27T19:15:16.018Z,9.00
2018-01-27T19:17:44.472Z,8.50
2018-01-27T19:20:12.826Z,7.10
2018-01-27T19:22:41.145Z,7.30
2018-01-27T19:25:09.490Z,9.55
2018-01-27T19:27:37.813Z,8.35
2018-01-27T19:30:06.161Z,7.80
2018-01-27T19:32:34.482Z,7.20
2018-01-27T19:35:02.830Z,5.80
2018-01-27T19:37:32.108Z,7.15
2018-01-27T19:40:00.450Z,6.53
2018-01-27T19:42:28.769Z,6.30
2018-01-27T19:44:57.113Z,6.43
2018-01-27T19:47:25.434Z,6.80
2018-01-27T19:49:53.773Z,7.65
2018-01-27T19:52:22.093Z,6.40
2018-01-27T19:54:50.438Z,5.80
2018-01-27T19:57:18.917Z,5.95
2018-01-27T19:59:47.262Z,5.80
2018-01-27T20:02:15.590Z,6.17
2018-01-27T20:04:43.933Z,6.10
2018-01-27T20:07:12.257Z,7.05
2018-01-27T20:09:40.610Z,6.30
2018-01-27T20:12:08.934Z,6.47
2018-01-27T20:14:37.274Z,5.27
2018-01-27T20:17:06.489Z,6.37
2018-01-27T20:19:34.825Z,5.70
2018-01-27T20:22:03.148Z,6.50
2018-01-27T20:24:31.491Z,6.60
2018-01-27T20:26:59.812Z,6.50
2018-01-27T20:29:28.157Z,5.70
2018-01-27T20:31:56.473Z,5.30
2018-01-27T20:34:24.813Z,6.20
2018-01-27T20:36:54.077Z,5.62
2018-01-27T20:39:22.421Z,5.57
2018-01-27T20:41:50.751Z,6.37
2018-01-27T20:44:19.089Z,5.80
2018-01-27T20:46:47.410Z,4.80
2018-01-27T20:49:15.753Z,6.10
2018-01-27T20:51:44.085Z,5.60
2018-01-27T20:54:12.426Z,5.80
2018-01-27T20:56:40.745Z,5.70
2018-01-27T20:59:09.090Z,5.40
2018-01-27T21:01:37.414Z,4.60
2018-01-27T21:04:05.749Z,5.47
2018-01-27T21:06:34.074Z,5.33
2018-01-27T21:09:02.398Z,5.65
2018-01-27T21:11:30.745Z,4.50
2018-01-27T21:13:59.069Z,4.85
2018-01-27T21:16:27.405Z,5.70
2018-01-27T21:18:55.726Z,5.50
2018-01-27T21:21:24.070Z,4.82
2018-01-27T21:23:52.393Z,4.93
2018-01-27T21:26:20.738Z,4.63
2018-01-27T21:28:49.062Z,4.03
2018-01-27T21:31:17.405Z,3.97
2018-01-27T21:33:45.725Z,4.82
2018-01-27T21:36:14.062Z,4.40
2018-01-27T21:38:42.382Z,4.00
2018-01-27T21:41:10.725Z,4.10
2018-01-27T21:43:39.046Z,3.50
2018-01-27T21:46:07.382Z,3.63
2018-01-27T21:48:35.701Z,3.28
2018-01-27T21:51:04.038Z,2.80
2018-01-27T21:53:32.359Z,3.25
2018-01-27T21:56:00.698Z,2.80
2018-01-27T21:58:29.014Z,4.10
2018-01-27T22:00:57.353Z,3.43
2018-01-27T22:03:33.034Z,3.23
2018-01-27T22:06:01.373Z,3.13
2018-01-27T22:08:29.681Z,3.83
2018-01-27T22:10:58.017Z,3.50
2018-01-27T22:13:26.333Z,3.40
2018-01-27T22:15:54.670Z,3.17
2018-01-27T22:18:22.997Z,3.42
2018-01-27T22:20:51.332Z,3.77
2018-01-27T22:23:19.649Z,3.20
2018-01-27T22:25:47.985Z,3.50
2018-01-27T22:28:16.297Z,3.83
2018-01-27T22:30:44.633Z,3.80
2018-01-27T22:33:12.949Z,3.70
2018-01-27T22:35:41.291Z,3.80
2018-01-27T22:38:09.606Z,3.50
2018-01-27T22:40:37.944Z,3.60
2018-01-27T22:43:06.273Z,3.62
2018-01-27T22:45:34.605Z,3.85
2018-01-27T22:48:03.130Z,4.10
2018-01-27T22:50:31.465Z,3.70
2018-01-27T22:52:59.781Z,4.00
2018-01-27T22:55:28.113Z,4.27
2018-01-27T22:57:56.436Z,3.85
2018-01-27T23:00:24.760Z,3.83
2018-01-27T23:02:53.082Z,3.20
2018-01-27T23:05:21.422Z,3.80
2018-01-27T23:07:49.738Z,3.70
2018-01-27T23:10:18.078Z,3.75
2018-01-27T23:12:46.393Z,3.83
2018-01-27T23:15:14.707Z,3.00
2018-01-27T23:17:43.045Z,2.90
2018-01-27T23:20:11.361Z,2.83
2018-01-27T23:22:39.697Z,3.60
2018-01-27T23:25:08.049Z,3.70
2018-01-27T23:27:36.373Z,3.90
2018-01-27T23:30:04.694Z,3.90
2018-01-27T23:32:33.029Z,3.35
2018-01-27T23:35:01.338Z,3.50
2018-01-27T23:37:29.682Z,3.00
2018-01-27T23:39:57.997Z,4.47
2018-01-27T23:42:26.337Z,3.97
2018-01-27T23:44:54.654Z,3.90
2018-01-27T23:47:22.993Z,3.53
2018-01-27T23:49:51.318Z,4.07
2018-01-27T23:52:19.662Z,4.43
2018-01-27T23:54:47.982Z,4.13
2018-01-27T23:57:16.321Z,5.77
2018-01-27T23:59:44.633Z,3.70
